Terminal Aerodrome Forecast
Issued by NWS Pittsburgh, PA

Home | Current Version | Previous Version | Text Only | Print | Product List | Glossary On
Versions: 1 2 3 4 5 6 7 8 9 10 11 12 13 14 15 16 17 18 19 20 21 22 23 24 25 26 27 28 29 30 31
000
FTUS41 KPBZ 260257 AAB
TAFPIT
TAF AMD
KPIT 260257Z 2603/2706 25004KT P6SM -SHRA SCT013 BKN030 OVC140
     FM260400 24005KT 5SM -SHRA OVC015
     FM260800 26008KT P6SM VCSH OVC010
     FM262000 28009KT P6SM BKN025
     FM262200 28008KT P6SM BKN090=

USA.gov is the U.S. government's official web portal to all federal, state and local government web resources and services.